Time;durP1;ratioP1;P1;durP2;ratioP2;P2;SDS_P1;SDS_P2;PMS_P1;PMS_P2;Temp;Humidity;BMP_temperature;BMP_pressure;BME280_temperature;BME280_humidity;BME280_pressure;Samples;Min_cycle;Max_cycle;Signal;HPM_P1;HPM_P2
2021/06/27 00:00:14;;;;;;;6.97;4.23;;;20.70;80.70;;;;;;5016546;28;20445;-48
2021/06/27 00:02:46;;;;;;;6.10;4.90;;;20.80;81.50;;;;;;5016238;28;20906;-48
2021/06/27 00:05:16;;;;;;;7.00;4.90;;;20.70;81.50;;;;;;5016633;28;20433;-50
2021/06/27 00:07:43;;;;;;;4.67;4.27;;;20.70;81.90;;;;;;5019444;28;20492;-45
2021/06/27 00:10:15;;;;;;;4.93;3.87;;;20.70;81.70;;;;;;5032141;28;20757;-46
2021/06/27 00:12:42;;;;;;;17.37;10.73;;;20.70;81.20;;;;;;5015625;28;20473;-45
2021/06/27 00:15:14;;;;;;;5.00;4.50;;;20.70;81.60;;;;;;5018159;28;20536;-44
2021/06/27 00:17:41;;;;;;;6.63;4.50;;;20.70;82.20;;;;;;5019570;28;20444;-49
2021/06/27 00:20:10;;;;;;;3.93;3.43;;;20.70;82.10;;;;;;5015796;28;20775;-48
2021/06/27 00:22:37;;;;;;;7.57;3.73;;;20.60;82.30;;;;;;5015516;28;20765;-49
2021/06/27 00:25:05;;;;;;;8.83;3.50;;;20.50;82.70;;;;;;5015750;28;20507;-48
2021/06/27 00:27:33;;;;;;;5.03;3.43;;;20.50;83.20;;;;;;5015528;28;20539;-48
2021/06/27 00:29:59;;;;;;;6.03;4.23;;;20.50;83.70;;;;;;5016016;28;20461;-48
2021/06/27 00:32:26;;;;;;;4.70;4.17;;;20.40;83.90;;;;;;5015786;28;20449;-48
2021/06/27 00:34:53;;;;;;;5.50;4.60;;;20.40;84.40;;;;;;5015847;28;20453;-44
2021/06/27 00:37:20;;;;;;;9.80;4.80;;;20.40;85.00;;;;;;5015612;28;20445;-49
2021/06/27 00:39:47;;;;;;;6.50;4.20;;;20.30;85.20;;;;;;5015422;28;20530;-44
2021/06/27 00:42:13;;;;;;;6.60;3.80;;;20.30;85.40;;;;;;5015745;28;20445;-47
2021/06/27 00:44:41;;;;;;;5.50;4.03;;;20.30;85.90;;;;;;5015449;28;20515;-48
2021/06/27 00:47:08;;;;;;;4.50;3.53;;;20.30;86.40;;;;;;5015352;28;20796;-46
2021/06/27 00:49:35;;;;;;;4.13;3.43;;;20.20;86.60;;;;;;5015342;28;20836;-47
2021/06/27 00:52:01;;;;;;;4.53;3.43;;;20.20;87.00;;;;;;5015833;28;20448;-46
2021/06/27 00:54:28;;;;;;;4.53;3.70;;;20.20;87.50;;;;;;5015049;28;20522;-49
2021/06/27 00:56:55;;;;;;;4.47;3.70;;;20.20;88.00;;;;;;5017263;28;20464;-44
2021/06/27 00:59:22;;;;;;;3.50;3.10;;;20.20;88.20;;;;;;5036812;28;20472;-45
2021/06/27 01:01:50;;;;;;;4.03;3.40;;;20.20;88.20;;;;;;5030157;28;20448;-50
2021/06/27 01:04:17;;;;;;;4.47;3.23;;;20.20;88.40;;;;;;5024609;28;20808;-46
2021/06/27 01:06:43;;;;;;;3.63;3.23;;;20.20;89.20;;;;;;5022006;28;20534;-46
2021/06/27 01:09:10;;;;;;;6.13;3.57;;;20.20;89.40;;;;;;5029806;28;20530;-48
2021/06/27 01:11:37;;;;;;;3.10;2.80;;;20.20;89.90;;;;;;5018524;28;20476;-48
2021/06/27 01:14:07;;;;;;;4.80;3.40;;;20.20;90.20;;;;;;5025251;28;20452;-47
2021/06/27 01:16:40;;;;;;;4.90;3.13;;;20.20;90.40;;;;;;5020756;28;20441;-44
2021/06/27 01:19:08;;;;;;;4.97;3.60;;;20.10;90.60;;;;;;5030974;28;20453;-45
2021/06/27 01:21:37;;;;;;;3.73;3.23;;;20.20;90.80;;;;;;5021152;28;20452;-44
2021/06/27 01:24:04;;;;;;;3.40;3.10;;;20.20;90.90;;;;;;5024133;28;20507;-44
2021/06/27 01:26:31;;;;;;;4.13;3.73;;;20.20;91.20;;;;;;5028863;28;20860;-45
2021/06/27 01:28:58;;;;;;;5.60;3.83;;;20.30;91.20;;;;;;5018401;28;20445;-44
2021/06/27 01:31:26;;;;;;;7.67;3.40;;;20.30;91.30;;;;;;5029289;28;20456;-46
2021/06/27 01:33:53;;;;;;;4.40;2.80;;;20.30;91.40;;;;;;5021873;28;20494;-44
2021/06/27 01:36:21;;;;;;;5.67;4.37;;;20.20;91.70;;;;;;5026148;28;20465;-45
2021/06/27 01:38:49;;;;;;;3.47;3.17;;;20.20;92.10;;;;;;5028055;28;20444;-46
2021/06/27 01:41:16;;;;;;;3.63;2.50;;;20.10;92.40;;;;;;5030285;28;20449;-47
2021/06/27 01:43:42;;;;;;;6.43;3.30;;;20.10;92.60;;;;;;5021464;28;20467;-49
2021/06/27 01:46:09;;;;;;;4.27;3.60;;;20.10;92.90;;;;;;5034103;28;20452;-47
2021/06/27 01:48:37;;;;;;;4.00;3.67;;;20.10;92.90;;;;;;5019109;28;20444;-51
2021/06/27 01:51:06;;;;;;;4.43;3.90;;;20.00;93.30;;;;;;5031169;28;20816;-45
2021/06/27 01:53:37;;;;;;;4.67;3.53;;;20.00;93.50;;;;;;5020785;28;20497;-46
2021/06/27 01:56:06;;;;;;;4.00;3.43;;;20.00;93.50;;;;;;5023863;28;20897;-44
2021/06/27 01:58:40;;;;;;;4.07;3.60;;;19.90;93.80;;;;;;5029261;28;20765;-44
2021/06/27 02:01:11;;;;;;;3.60;3.10;;;19.90;94.00;;;;;;5017946;28;20848;-45
2021/06/27 02:03:38;;;;;;;3.50;2.80;;;19.80;94.20;;;;;;5027730;28;20441;-45
2021/06/27 02:06:05;;;;;;;4.93;3.30;;;19.80;94.60;;;;;;5024903;28;20436;-45
2021/06/27 02:08:34;;;;;;;4.70;2.83;;;19.80;94.70;;;;;;5029069;28;20492;-49
2021/06/27 02:11:06;;;;;;;3.70;3.23;;;19.80;95.10;;;;;;5017673;28;20536;-44
2021/06/27 02:13:34;;;;;;;3.37;3.00;;;19.80;95.00;;;;;;5023126;28;20472;-47
2021/06/27 02:16:00;;;;;;;3.50;3.20;;;19.70;95.30;;;;;;5023967;28;20506;-45
2021/06/27 02:18:31;;;;;;;5.13;3.47;;;19.70;95.50;;;;;;5019906;28;20444;-48
2021/06/27 02:20:59;;;;;;;3.20;2.90;;;19.70;96.00;;;;;;5029952;28;20491;-50
2021/06/27 02:23:26;;;;;;;4.50;3.17;;;19.60;96.30;;;;;;5125594;22;20693;-47
2021/06/27 02:25:53;;;;;;;4.03;3.20;;;19.60;96.60;;;;;;5125179;22;20495;-49
2021/06/27 02:28:21;;;;;;;3.43;3.13;;;19.60;96.90;;;;;;5114284;28;20476;-47
2021/06/27 02:30:51;;;;;;;3.50;3.20;;;19.60;97.20;;;;;;5114464;28;20900;-44
2021/06/27 02:33:19;;;;;;;4.33;3.30;;;19.60;97.40;;;;;;5107639;28;20442;-50
2021/06/27 02:35:46;;;;;;;5.73;4.83;;;19.60;97.50;;;;;;5093462;28;20973;-51
2021/06/27 02:38:15;;;;;;;6.27;3.67;;;19.60;97.70;;;;;;5093362;28;20501;-48
2021/06/27 02:40:43;;;;;;;6.90;4.13;;;19.60;98.10;;;;;;5097154;28;20472;-47
2021/06/27 02:43:10;;;;;;;5.27;3.97;;;19.50;98.60;;;;;;5093895;28;20442;-48
2021/06/27 02:45:38;;;;;;;4.97;4.37;;;19.50;99.10;;;;;;5093489;28;20457;-46
2021/06/27 02:48:06;;;;;;;5.73;3.90;;;19.40;99.70;;;;;;5093214;28;20964;-50
2021/06/27 02:50:35;;;;;;;5.60;3.63;;;19.40;99.90;;;;;;5093276;28;20505;-44
2021/06/27 02:53:02;;;;;;;4.83;4.27;;;19.30;99.90;;;;;;5093627;28;20445;-46
2021/06/27 02:55:29;;;;;;;3.80;3.23;;;19.30;99.90;;;;;;5093616;28;20445;-47
2021/06/27 02:57:55;;;;;;;6.90;3.80;;;19.20;99.90;;;;;;5093273;28;20482;-46
2021/06/27 03:00:24;;;;;;;6.70;3.60;;;19.20;99.90;;;;;;5095760;28;20445;-45
2021/06/27 03:02:52;;;;;;;6.40;3.97;;;19.20;99.90;;;;;;5102120;28;20905;-47
2021/06/27 03:05:19;;;;;;;10.97;4.27;;;19.10;99.90;;;;;;5117327;28;20459;-46
2021/06/27 03:07:45;;;;;;;7.17;4.33;;;19.00;99.90;;;;;;5117310;28;20480;-45
2021/06/27 03:10:14;;;;;;;5.40;3.10;;;19.00;99.90;;;;;;5116956;28;20446;-43
2021/06/27 03:12:42;;;;;;;6.63;3.70;;;19.00;99.90;;;;;;5117180;28;20448;-45
2021/06/27 03:15:10;;;;;;;8.10;3.60;;;19.00;99.90;;;;;;5116931;28;20889;-45
2021/06/27 03:17:36;;;;;;;8.60;4.53;;;19.00;99.90;;;;;;5117167;28;20469;-44
2021/06/27 03:20:06;;;;;;;8.90;3.40;;;18.90;99.90;;;;;;5117393;28;20444;-49
2021/06/27 03:22:33;;;;;;;8.97;3.97;;;18.90;99.90;;;;;;5117217;28;20773;-50
2021/06/27 03:25:00;;;;;;;4.67;3.40;;;18.90;99.90;;;;;;5116606;28;20445;-46
2021/06/27 03:27:27;;;;;;;5.30;4.77;;;18.90;99.90;;;;;;5116752;28;20480;-47
2021/06/27 03:29:56;;;;;;;5.20;3.83;;;18.90;99.90;;;;;;5116647;28;20501;-45
2021/06/27 03:32:23;;;;;;;6.03;3.80;;;18.90;99.90;;;;;;5116597;28;20966;-47
2021/06/27 03:34:51;;;;;;;8.23;3.77;;;18.90;99.90;;;;;;5116621;28;20452;-48
2021/06/27 03:37:19;;;;;;;7.70;3.60;;;18.90;99.90;;;;;;5116868;28;20444;-48
2021/06/27 03:39:50;;;;;;;3.67;3.27;;;19.00;99.90;;;;;;5116663;28;20883;-49
2021/06/27 03:42:16;;;;;;;4.90;3.70;;;19.00;99.90;;;;;;5116980;28;20456;-47
2021/06/27 03:44:43;;;;;;;6.63;4.10;;;19.00;99.90;;;;;;5116394;28;20904;-48
2021/06/27 03:47:12;;;;;;;5.20;4.00;;;19.00;99.90;;;;;;5116212;28;20502;-48
2021/06/27 03:49:40;;;;;;;5.10;3.27;;;19.10;99.90;;;;;;5116613;28;20474;-47
2021/06/27 03:52:09;;;;;;;4.57;4.17;;;19.10;99.90;;;;;;5107276;28;20858;-47
2021/06/27 03:54:40;;;;;;;4.40;3.07;;;19.10;99.90;;;;;;5096119;28;20445;-44
2021/06/27 03:57:08;;;;;;;3.97;3.57;;;19.20;99.90;;;;;;5095903;28;20503;-45
2021/06/27 03:59:37;;;;;;;5.73;3.63;;;19.20;99.90;;;;;;5098542;28;20466;-44
2021/06/27 04:02:04;;;;;;;7.27;3.47;;;19.20;99.90;;;;;;5095768;28;20461;-44
2021/06/27 04:04:31;;;;;;;6.43;3.60;;;19.20;99.90;;;;;;5095783;28;20832;-46
2021/06/27 04:06:57;;;;;;;4.30;3.90;;;19.20;99.90;;;;;;5095791;28;20797;-45
2021/06/27 04:09:24;;;;;;;6.80;3.53;;;19.20;99.90;;;;;;5106339;28;20501;-44
2021/06/27 04:11:53;;;;;;;4.13;3.30;;;19.20;99.90;;;;;;5116003;28;20776;-44
2021/06/27 04:14:20;;;;;;;4.00;3.50;;;19.30;99.90;;;;;;5115029;28;20537;-44
2021/06/27 04:16:46;;;;;;;4.43;3.10;;;19.30;99.90;;;;;;5115687;28;20460;-46
2021/06/27 04:19:13;;;;;;;5.53;4.00;;;19.40;99.90;;;;;;5116191;28;20448;-43
2021/06/27 04:21:40;;;;;;;3.33;2.80;;;19.40;99.90;;;;;;5115865;28;20514;-43
2021/06/27 04:24:08;;;;;;;5.10;3.00;;;19.40;99.90;;;;;;5115862;28;20908;-44
2021/06/27 04:26:34;;;;;;;4.40;3.23;;;19.40;99.90;;;;;;5115357;28;20533;-46
2021/06/27 04:29:03;;;;;;;7.83;3.40;;;19.40;99.90;;;;;;5115632;28;20602;-44
2021/06/27 04:31:30;;;;;;;5.80;3.97;;;19.40;99.90;;;;;;5115732;28;20758;-46
2021/06/27 04:33:57;;;;;;;3.83;3.43;;;19.50;99.90;;;;;;5104772;28;20476;-47
2021/06/27 04:36:24;;;;;;;3.60;3.30;;;19.50;99.90;;;;;;5095378;28;20437;-46
2021/06/27 04:38:51;;;;;;;3.90;3.23;;;19.50;99.90;;;;;;5102224;28;20441;-46
2021/06/27 04:41:18;;;;;;;4.83;3.60;;;19.60;99.90;;;;;;5114566;28;20452;-45
2021/06/27 04:43:44;;;;;;;4.73;3.77;;;19.60;99.90;;;;;;5115360;28;20451;-47
2021/06/27 04:46:13;;;;;;;4.83;3.20;;;19.60;99.90;;;;;;5115372;28;20448;-44
2021/06/27 04:48:40;;;;;;;4.30;3.27;;;19.60;99.90;;;;;;5115250;28;20476;-46
2021/06/27 04:51:07;;;;;;;6.53;3.07;;;19.60;99.90;;;;;;5115061;28;20456;-46
2021/06/27 04:53:34;;;;;;;3.63;2.80;;;19.70;99.90;;;;;;5115208;28;20444;-49
2021/06/27 04:56:01;;;;;;;3.60;3.30;;;19.70;99.90;;;;;;5115480;28;20764;-50
2021/06/27 04:58:28;;;;;;;3.80;3.20;;;19.80;99.90;;;;;;5114953;28;20510;-44
2021/06/27 05:00:54;;;;;;;3.80;3.30;;;19.90;99.90;;;;;;5115033;28;20513;-47
2021/06/27 05:03:25;;;;;;;4.30;3.27;;;19.90;99.90;;;;;;5114988;28;20962;-50
2021/06/27 05:05:51;;;;;;;3.70;3.40;;;19.90;99.90;;;;;;5115083;28;20506;-49
2021/06/27 05:08:18;;;;;;;3.80;3.00;;;20.00;99.90;;;;;;5114975;28;20480;-43
2021/06/27 05:10:45;;;;;;;3.57;3.23;;;20.00;99.90;;;;;;5114508;28;20483;-46
2021/06/27 05:13:12;;;;;;;5.80;4.30;;;20.10;99.90;;;;;;5114917;28;20440;-48
2021/06/27 05:15:38;;;;;;;3.63;3.23;;;20.10;99.90;;;;;;5114793;28;20448;-46
2021/06/27 05:18:06;;;;;;;4.27;3.40;;;20.20;99.90;;;;;;5114989;28;20444;-44
2021/06/27 05:20:34;;;;;;;4.27;3.50;;;20.30;99.90;;;;;;5114753;28;20905;-46
2021/06/27 05:23:00;;;;;;;6.30;3.50;;;20.30;99.90;;;;;;5114176;28;20500;-46
2021/06/27 05:25:27;;;;;;;4.20;3.80;;;20.40;99.90;;;;;;5110446;28;20495;-49
2021/06/27 05:27:57;;;;;;;4.30;3.20;;;20.40;99.90;;;;;;5094223;28;20485;-46
2021/06/27 05:30:30;;;;;;;3.70;3.33;;;20.50;99.90;;;;;;5094049;28;20445;-45
2021/06/27 05:33:00;;;;;;;5.60;3.50;;;20.60;99.90;;;;;;5094486;28;20457;-46
2021/06/27 05:35:27;;;;;;;3.13;2.83;;;20.60;99.90;;;;;;5094302;28;20453;-45
2021/06/27 05:37:55;;;;;;;3.80;2.90;;;20.60;99.90;;;;;;5094079;28;20446;-45
2021/06/27 05:40:21;;;;;;;3.97;3.57;;;20.60;99.90;;;;;;5094079;28;20457;-44
2021/06/27 05:42:48;;;;;;;3.50;3.20;;;20.70;99.90;;;;;;5094156;28;20445;-48
2021/06/27 05:45:15;;;;;;;5.33;3.83;;;20.70;99.90;;;;;;5093990;28;20445;-48
2021/06/27 05:47:42;;;;;;;5.10;3.00;;;20.70;99.90;;;;;;5094155;28;20942;-45
2021/06/27 05:50:09;;;;;;;3.47;3.10;;;20.80;99.90;;;;;;5094218;28;20453;-52
2021/06/27 05:52:40;;;;;;;4.37;3.17;;;20.90;99.90;;;;;;5094265;28;20451;-46
2021/06/27 05:55:09;;;;;;;3.57;3.27;;;21.00;99.90;;;;;;5094238;28;20426;-50
2021/06/27 05:57:39;;;;;;;4.90;3.10;;;21.00;99.80;;;;;;5093664;28;20457;-46
2021/06/27 06:00:07;;;;;;;3.30;3.00;;;21.10;99.70;;;;;;5091187;28;20903;-47
2021/06/27 06:02:34;;;;;;;3.73;3.43;;;21.20;99.80;;;;;;5073830;28;20430;-46
2021/06/27 06:05:03;;;;;;;5.30;4.40;;;21.30;99.70;;;;;;5073705;28;20496;-45
2021/06/27 06:07:30;;;;;;;3.10;2.77;;;21.30;99.20;;;;;;5073588;28;20511;-47
2021/06/27 06:09:57;;;;;;;4.70;2.83;;;21.30;99.30;;;;;;5073637;28;20497;-45
2021/06/27 06:12:25;;;;;;;3.73;3.37;;;21.40;99.20;;;;;;5094043;28;20442;-46
2021/06/27 06:14:52;;;;;;;5.60;3.70;;;21.50;99.10;;;;;;5093645;28;20449;-49
2021/06/27 06:17:19;;;;;;;4.10;2.97;;;21.50;98.70;;;;;;5093711;28;20441;-47
2021/06/27 06:19:50;;;;;;;4.60;4.20;;;21.60;98.20;;;;;;5092975;28;20461;-44
2021/06/27 06:22:17;;;;;;;3.30;2.87;;;21.60;98.10;;;;;;5094141;28;20446;-46
2021/06/27 06:24:44;;;;;;;3.43;3.07;;;21.70;98.30;;;;;;5094012;28;20441;-53
2021/06/27 06:27:10;;;;;;;3.70;2.80;;;21.80;97.90;;;;;;5112353;28;20472;-48
2021/06/27 06:29:38;;;;;;;3.50;2.63;;;21.80;97.50;;;;;;5113701;28;20557;-47
2021/06/27 06:32:06;;;;;;;3.73;3.27;;;21.90;97.50;;;;;;5114202;28;20814;-46
2021/06/27 06:34:32;;;;;;;3.70;2.90;;;21.90;97.70;;;;;;5117589;28;20505;-49
2021/06/27 06:36:59;;;;;;;4.80;3.10;;;21.90;97.90;;;;;;5118057;28;20440;-44
2021/06/27 06:39:26;;;;;;;3.30;2.93;;;22.00;97.60;;;;;;5097564;28;20453;-45
2021/06/27 06:41:52;;;;;;;4.20;3.10;;;22.00;97.60;;;;;;5097582;28;20951;-44
2021/06/27 06:44:19;;;;;;;4.07;3.50;;;22.10;97.60;;;;;;5097285;28;20457;-44
2021/06/27 06:46:47;;;;;;;7.13;3.57;;;22.10;96.90;;;;;;5097153;28;20969;-44
2021/06/27 06:49:15;;;;;;;3.53;3.23;;;22.30;97.00;;;;;;5097253;28;21031;-44
2021/06/27 06:51:42;;;;;;;4.30;3.17;;;22.30;96.60;;;;;;5097033;28;20460;-45
2021/06/27 06:54:09;;;;;;;3.60;3.00;;;22.40;95.70;;;;;;5097136;28;20450;-44
2021/06/27 06:56:36;;;;;;;4.20;2.70;;;22.50;96.00;;;;;;5096884;28;20457;-49
2021/06/27 06:59:02;;;;;;;4.40;2.80;;;22.60;95.30;;;;;;5096834;28;20467;-50
2021/06/27 07:01:31;;;;;;;3.77;3.30;;;22.70;95.20;;;;;;5097125;28;20449;-44
2021/06/27 07:03:59;;;;;;;4.60;3.10;;;22.90;94.90;;;;;;5096772;28;20456;-50
2021/06/27 07:06:26;;;;;;;2.90;2.43;;;23.00;93.90;;;;;;5108534;28;20453;-50
2021/06/27 07:08:52;;;;;;;3.20;2.90;;;23.10;93.70;;;;;;5116859;28;20483;-48
2021/06/27 07:11:19;;;;;;;3.30;3.00;;;23.30;93.80;;;;;;5116077;28;20532;-51
2021/06/27 07:13:46;;;;;;;4.00;3.43;;;23.40;94.10;;;;;;5117325;28;20444;-51
2021/06/27 07:16:13;;;;;;;3.93;3.10;;;23.60;93.40;;;;;;5117035;28;20513;-50
2021/06/27 07:18:39;;;;;;;4.57;3.30;;;23.90;92.70;;;;;;5116806;28;20452;-52
2021/06/27 07:21:07;;;;;;;3.17;2.97;;;24.20;91.90;;;;;;5117083;28;20498;-50
2021/06/27 07:23:34;;;;;;;3.63;2.97;;;25.70;91.20;;;;;;5116693;28;20501;-50
2021/06/27 07:26:01;;;;;;;4.20;3.80;;;27.70;85.50;;;;;;5114529;28;20479;-49
2021/06/27 07:28:27;;;;;;;4.93;3.00;;;29.60;73.60;;;;;;5096444;28;20477;-50
2021/06/27 07:30:54;;;;;;;4.50;2.97;;;31.40;65.00;;;;;;5098597;27;20454;-52
2021/06/27 07:33:21;;;;;;;3.27;2.83;;;33.10;57.40;;;;;;5107053;27;20932;-52
2021/06/27 07:35:48;;;;;;;3.67;3.37;;;34.80;52.50;;;;;;5107544;27;20538;-46
2021/06/27 07:38:16;;;;;;;3.80;3.20;;;36.20;48.30;;;;;;5104761;27;20559;-52
2021/06/27 07:40:42;;;;;;;3.50;3.20;;;37.40;45.00;;;;;;5106214;28;20482;-49
2021/06/27 07:43:10;;;;;;;4.00;3.57;;;38.40;41.20;;;;;;5107052;28;20775;-49
2021/06/27 07:45:36;;;;;;;3.93;3.53;;;38.70;39.30;;;;;;5105049;28;20487;-50
2021/06/27 07:48:04;;;;;;;4.27;3.57;;;39.00;38.40;;;;;;5105571;28;20497;-50
2021/06/27 07:50:31;;;;;;;4.53;3.20;;;39.20;37.60;;;;;;5105121;28;20510;-50
2021/06/27 07:52:57;;;;;;;4.10;3.20;;;39.30;37.40;;;;;;5108310;28;20452;-50
2021/06/27 07:55:25;;;;;;;2.90;2.70;;;39.50;36.80;;;;;;5104674;28;20433;-48
2021/06/27 07:57:52;;;;;;;4.03;3.47;;;39.40;36.40;;;;;;5105456;28;20821;-49
2021/06/27 08:00:20;;;;;;;5.50;3.00;;;39.40;36.10;;;;;;5108741;28;20960;-50
2021/06/27 08:02:47;;;;;;;3.47;3.17;;;39.40;36.00;;;;;;5104900;28;20494;-51
2021/06/27 08:05:14;;;;;;;3.77;2.90;;;39.20;35.50;;;;;;5106751;28;20445;-52
2021/06/27 08:07:41;;;;;;;4.00;3.60;;;39.10;35.80;;;;;;5105658;28;20453;-50
2021/06/27 08:10:09;;;;;;;3.07;2.87;;;39.50;35.90;;;;;;5113309;28;20472;-49
2021/06/27 08:12:38;;;;;;;4.03;3.63;;;39.40;35.70;;;;;;5111825;28;20500;-51
2021/06/27 08:15:06;;;;;;;5.10;4.40;;;39.00;35.70;;;;;;5106038;28;20528;-48
2021/06/27 08:17:33;;;;;;;3.43;3.13;;;38.90;35.90;;;;;;5116521;28;20468;-48
2021/06/27 08:20:00;;;;;;;4.07;3.47;;;39.10;35.10;;;;;;5115871;28;20437;-50
2021/06/27 08:22:27;;;;;;;3.90;3.60;;;39.20;35.30;;;;;;5111093;28;20436;-49
2021/06/27 08:24:54;;;;;;;4.13;3.73;;;39.10;35.00;;;;;;5111833;28;20517;-47
2021/06/27 08:27:20;;;;;;;4.07;3.73;;;39.10;35.10;;;;;;5114232;28;20437;-52
2021/06/27 08:29:49;;;;;;;4.63;4.13;;;39.00;35.30;;;;;;5109556;28;20476;-50
2021/06/27 08:32:15;;;;;;;3.63;3.17;;;39.00;35.40;;;;;;5108473;28;20510;-50
2021/06/27 08:34:42;;;;;;;4.60;4.03;;;39.20;35.20;;;;;;5104744;28;20545;-49
2021/06/27 08:37:09;;;;;;;4.80;4.40;;;39.20;35.40;;;;;;5107698;28;20441;-50
2021/06/27 08:39:36;;;;;;;3.97;3.67;;;39.00;34.90;;;;;;5106146;28;20432;-53
2021/06/27 08:42:03;;;;;;;3.40;3.10;;;38.80;35.10;;;;;;5108169;28;20449;-52
2021/06/27 08:44:31;;;;;;;3.57;3.27;;;38.90;35.30;;;;;;5100811;28;20433;-50
2021/06/27 08:47:03;;;;;;;4.70;4.30;;;39.10;35.20;;;;;;5099899;28;20444;-51
2021/06/27 08:49:32;;;;;;;3.70;3.40;;;39.20;35.20;;;;;;5116895;28;20465;-51
2021/06/27 08:51:59;;;;;;;4.73;3.60;;;39.00;35.00;;;;;;5113892;28;20472;-49
2021/06/27 08:54:28;;;;;;;4.00;3.60;;;39.10;34.80;;;;;;5112255;28;20437;-52
2021/06/27 08:56:56;;;;;;;4.00;3.60;;;39.50;34.20;;;;;;5115809;28;20506;-51
2021/06/27 08:59:23;;;;;;;4.83;3.67;;;39.20;34.60;;;;;;5111569;28;20522;-52
2021/06/27 09:01:49;;;;;;;4.40;3.13;;;39.30;34.40;;;;;;5110259;28;20461;-48
2021/06/27 09:04:18;;;;;;;4.50;3.57;;;39.30;35.30;;;;;;5102875;28;20503;-52
2021/06/27 09:06:48;;;;;;;3.83;3.40;;;39.30;34.90;;;;;;5108284;28;20948;-50
2021/06/27 09:09:18;;;;;;;4.13;3.63;;;39.40;34.30;;;;;;5105552;28;20495;-48
2021/06/27 09:12:01;;;;;;;3.90;3.60;;;39.60;34.30;;;;;;5107909;28;20448;-52
2021/06/27 09:14:34;;;;;;;3.30;3.00;;;39.70;34.10;;;;;;5106318;28;20768;-46
2021/06/27 09:17:12;;;;;;;4.10;3.80;;;39.60;34.80;;;;;;5105009;28;20536;-48
2021/06/27 09:20:09;;;;;;;4.50;3.80;;;39.50;34.40;;;;;;5105399;28;20476;-52
2021/06/27 09:22:38;;;;;;;4.00;3.70;;;39.60;33.90;;;;;;5103765;28;20952;-49
2021/06/27 09:25:25;;;;;;;3.73;3.43;;;39.80;34.00;;;;;;5105723;28;20445;-51
2021/06/27 09:28:17;;;;;;;6.20;3.33;;;39.60;34.10;;;;;;5105508;28;20493;-51
2021/06/27 09:30:47;;;;;;;4.60;4.00;;;39.10;34.40;;;;;;5105069;28;20796;-52
2021/06/27 09:33:16;;;;;;;3.60;3.30;;;39.00;35.00;;;;;;5106177;28;20528;-49
2021/06/27 09:35:47;;;;;;;3.90;3.60;;;39.10;34.60;;;;;;5104214;28;20433;-49
2021/06/27 09:38:31;;;;;;;4.77;3.97;;;39.50;34.50;;;;;;5105628;28;20432;-49
2021/06/27 09:41:03;;;;;;;4.77;3.57;;;39.60;33.90;;;;;;5105603;28;20424;-52
2021/06/27 09:43:33;;;;;;;4.90;3.73;;;39.40;34.50;;;;;;5107693;28;20458;-49
2021/06/27 09:46:10;;;;;;;3.87;3.57;;;39.40;33.90;;;;;;5103145;28;20444;-51
2021/06/27 09:48:50;;;;;;;4.03;3.60;;;39.20;35.30;;;;;;5103605;28;20533;-51
2021/06/27 09:51:25;;;;;;;7.93;3.70;;;39.00;34.60;;;;;;5103282;28;20540;-48
2021/06/27 09:53:52;;;;;;;3.90;3.00;;;38.80;34.40;;;;;;5106098;28;20429;-49
2021/06/27 09:56:20;;;;;;;4.30;3.90;;;38.70;34.30;;;;;;5103540;28;20471;-48
2021/06/27 09:59:05;;;;;;;5.23;4.23;;;38.20;34.50;;;;;;5105676;28;20456;-52
2021/06/27 10:01:34;;;;;;;3.67;3.47;;;37.70;35.00;;;;;;5109093;28;20465;-53
2021/06/27 10:04:04;;;;;;;4.27;3.87;;;36.70;36.10;;;;;;5105580;28;20444;-53
2021/06/27 10:06:33;;;;;;;5.30;4.00;;;35.70;38.00;;;;;;5104912;28;20457;-51
2021/06/27 10:09:13;;;;;;;8.23;4.73;;;35.60;39.10;;;;;;5106229;28;20441;-51
2021/06/27 10:11:53;;;;;;;3.83;3.03;;;36.00;38.00;;;;;;5107638;28;20528;-48
2021/06/27 10:14:20;;;;;;;4.20;3.90;;;36.30;37.70;;;;;;5107538;28;20453;-49
2021/06/27 10:16:49;;;;;;;4.20;3.80;;;36.20;37.20;;;;;;5100095;28;20548;-51
2021/06/27 10:19:16;;;;;;;3.43;3.13;;;36.30;37.90;;;;;;5111354;28;20437;-52
2021/06/27 10:21:45;;;;;;;3.23;2.93;;;36.30;37.20;;;;;;5100027;28;20445;-50
2021/06/27 10:24:12;;;;;;;3.80;3.40;;;35.90;37.70;;;;;;5116599;28;20910;-48
2021/06/27 10:26:41;;;;;;;4.47;3.80;;;36.00;37.90;;;;;;5122513;28;20480;-52
2021/06/27 10:29:10;;;;;;;3.70;3.40;;;36.10;38.10;;;;;;5135433;28;20427;-51
2021/06/27 10:31:38;;;;;;;4.50;3.33;;;36.10;38.80;;;;;;5125766;28;20887;-53
2021/06/27 10:34:05;;;;;;;4.87;3.33;;;36.20;37.70;;;;;;5121274;28;20432;-49
2021/06/27 10:36:35;;;;;;;4.17;3.80;;;36.00;38.70;;;;;;5121931;28;20455;-50
2021/06/27 10:39:09;;;;;;;5.87;3.77;;;36.00;38.60;;;;;;5118502;28;20452;-47
2021/06/27 10:41:54;;;;;;;3.13;2.93;;;35.90;38.20;;;;;;5113701;28;20452;-51
2021/06/27 10:44:25;;;;;;;4.80;3.57;;;35.50;39.70;;;;;;5103341;28;20449;-45
2021/06/27 10:46:55;;;;;;;3.50;3.20;;;34.90;40.30;;;;;;5099683;28;20433;-47
2021/06/27 10:49:52;;;;;;;4.60;3.87;;;34.60;39.40;;;;;;5118234;28;20571;-46
2021/06/27 10:52:28;;;;;;;5.23;3.60;;;34.30;40.50;;;;;;5118399;28;20472;-47
2021/06/27 10:55:19;;;;;;;4.20;3.80;;;34.20;41.40;;;;;;5118221;28;20428;-47
2021/06/27 10:57:57;;;;;;;4.33;3.93;;;33.80;41.50;;;;;;5118124;28;20569;-45
2021/06/27 11:00:25;;;;;;;7.03;3.80;;;33.50;40.80;;;;;;5117815;28;20896;-51
2021/06/27 11:02:52;;;;;;;3.63;3.30;;;32.80;42.20;;;;;;5118751;28;20934;-52
2021/06/27 11:05:39;;;;;;;3.90;3.60;;;32.70;43.40;;;;;;5115974;28;20456;-46
2021/06/27 11:08:11;;;;;;;4.30;3.93;;;32.70;42.90;;;;;;5109812;28;20774;-49
2021/06/27 11:10:40;;;;;;;3.63;3.10;;;32.80;43.00;;;;;;5126189;28;20859;-48
2021/06/27 11:13:15;;;;;;;4.83;4.30;;;32.70;43.00;;;;;;5109133;28;20496;-50
2021/06/27 11:16:21;;;;;;;3.47;3.17;;;32.80;41.90;;;;;;5114513;28;20428;-50
2021/06/27 11:18:50;;;;;;;3.70;3.40;;;32.70;42.10;;;;;;5107939;28;20444;-46
2021/06/27 11:21:38;;;;;;;3.50;3.07;;;32.50;43.20;;;;;;5116132;28;20444;-47
2021/06/27 11:24:09;;;;;;;3.40;3.10;;;32.50;42.20;;;;;;5109133;28;20948;-49
2021/06/27 11:26:56;;;;;;;5.57;3.60;;;32.50;42.30;;;;;;5117331;28;20536;-47
2021/06/27 11:29:56;;;;;;;4.07;3.40;;;32.40;42.60;;;;;;5117463;28;20511;-47
2021/06/27 11:32:45;;;;;;;3.27;2.77;;;32.40;43.60;;;;;;5117354;28;20445;-49
2021/06/27 11:35:46;;;;;;;3.27;2.97;;;32.40;42.40;;;;;;5117046;28;20909;-50
2021/06/27 11:38:39;;;;;;;3.50;3.20;;;32.20;42.10;;;;;;5109850;28;20455;-47
2021/06/27 11:41:08;;;;;;;5.20;3.63;;;31.40;43.10;;;;;;5116113;28;20521;-51
2021/06/27 11:43:55;;;;;;;3.43;3.13;;;31.30;44.10;;;;;;5102443;28;20442;-48
2021/06/27 11:46:33;;;;;;;5.53;4.67;;;31.50;45.10;;;;;;5104749;27;20443;-47
2021/06/27 11:49:02;;;;;;;3.83;3.37;;;31.70;44.70;;;;;;5137635;27;20416;-46
2021/06/27 11:51:42;;;;;;;4.43;4.03;;;31.50;44.60;;;;;;5115670;27;20481;-53
2021/06/27 11:54:11;;;;;;;3.70;3.40;;;31.10;45.20;;;;;;5131677;27;20443;-50
2021/06/27 11:56:58;;;;;;;3.43;3.13;;;30.80;45.40;;;;;;5108824;27;20467;-46
2021/06/27 11:59:28;;;;;;;6.40;2.90;;;30.50;46.20;;;;;;5117183;28;20420;-49
2021/06/27 12:02:05;;;;;;;6.27;2.80;;;30.40;46.30;;;;;;5131763;28;20444;-45
2021/06/27 12:04:40;;;;;;;3.80;3.40;;;30.40;45.90;;;;;;5127382;28;20482;-47
2021/06/27 12:07:32;;;;;;;4.00;3.07;;;30.50;45.80;;;;;;5107071;28;20472;-45
2021/06/27 12:10:00;;;;;;;4.20;3.90;;;30.50;46.00;;;;;;5117111;28;20894;-48
2021/06/27 12:12:45;;;;;;;4.20;3.77;;;30.60;46.30;;;;;;5099339;28;20493;-46
2021/06/27 12:15:33;;;;;;;3.67;3.37;;;30.70;46.50;;;;;;5106064;28;20491;-49
2021/06/27 12:18:02;;;;;;;4.27;3.40;;;30.70;45.40;;;;;;5116521;28;20475;-49
2021/06/27 12:20:30;;;;;;;3.30;2.97;;;30.60;46.30;;;;;;5115731;28;20897;-46
2021/06/27 12:22:59;;;;;;;5.00;3.53;;;30.60;46.50;;;;;;5116030;28;20459;-50
2021/06/27 12:25:27;;;;;;;4.30;3.90;;;30.50;47.30;;;;;;5115598;28;20948;-49
2021/06/27 12:27:55;;;;;;;4.30;3.90;;;30.50;47.50;;;;;;5109840;28;20445;-51
2021/06/27 12:30:46;;;;;;;5.27;3.57;;;30.60;47.70;;;;;;5112750;28;20477;-49
2021/06/27 12:33:14;;;;;;;3.60;3.30;;;30.60;46.90;;;;;;5115573;28;20489;-48
2021/06/27 12:35:43;;;;;;;4.10;3.67;;;30.60;46.60;;;;;;5115781;28;20444;-50
2021/06/27 12:38:12;;;;;;;4.60;3.53;;;30.60;47.10;;;;;;5112275;28;20783;-47
2021/06/27 12:40:45;;;;;;;4.60;3.53;;;30.50;46.90;;;;;;5097091;28;20441;-50
2021/06/27 12:43:31;;;;;;;4.30;3.60;;;30.50;47.20;;;;;;5102119;27;20495;-45
2021/06/27 12:46:23;;;;;;;3.13;2.83;;;30.60;47.10;;;;;;5112277;27;20516;-47
2021/06/27 12:49:06;;;;;;;4.17;3.10;;;30.70;46.40;;;;;;5093418;28;20449;-50
2021/06/27 12:51:34;;;;;;;3.53;3.23;;;30.80;45.10;;;;;;5092650;28;20534;-51
2021/06/27 12:54:10;;;;;;;3.80;3.20;;;30.90;45.80;;;;;;5094331;28;20547;-47
2021/06/27 12:56:51;;;;;;;2.70;2.50;;;30.90;45.50;;;;;;5095058;28;20843;-52
2021/06/27 12:59:19;;;;;;;4.00;3.43;;;31.00;45.30;;;;;;5094975;28;20433;-50